CEB3551 RPLL-RPMZ
Flight info
| Callsign | CEB3551 |
|---|---|
| Flight time | 1h 18m |
| Altitude | 37000 |
| Route | HARBO1 HARBO DCT VERDE A461 TINDO TINDO1E |
| Aircraft | A20N/M-SDE2E3FGHIJ1RWXY/LB1 |
Departure
| Time | 2026-05-06 22:28 |
|---|---|
| Airport | Ninoy Aquino International Airport (RPLL) |
Arrival
| Time | 2026-05-06 23:47 |
|---|---|
| Airport | Zamboanga International Airport (RPMZ) |
| Time | Latitude | Longitude | Altitude | Speed | Heading |
|---|---|---|---|---|---|
| 2026-05-06 22:10 | 14.52446 | 121.00717 | 82 ft | 0 kts | 44° |
| 2026-05-06 22:15 | 14.52440 | 121.00711 | 82 ft | 2 kts | 44° |
| 2026-05-06 22:15 | 14.52429 | 121.00700 | 82 ft | 2 kts | 44° |
| 2026-05-06 22:15 | 14.52418 | 121.00689 | 82 ft | 2 kts | 44° |
| 2026-05-06 22:16 | 14.52407 | 121.00678 | 82 ft | 2 kts | 44° |
| 2026-05-06 22:16 | 14.52398 | 121.00667 | 82 ft | 2 kts | 63° |
| 2026-05-06 22:16 | 14.52392 | 121.00652 | 82 ft | 2 kts | 80° |
| 2026-05-06 22:16 | 14.52392 | 121.00636 | 82 ft | 2 kts | 98° |
| 2026-05-06 22:17 | 14.52396 | 121.00622 | 82 ft | 2 kts | 116° |
| 2026-05-06 22:17 | 14.52403 | 121.00610 | 82 ft | 0 kts | 133° |
| 2026-05-06 22:17 | 14.52408 | 121.00606 | 82 ft | 1 kts | 136° |
| 2026-05-06 22:17 | 14.52408 | 121.00605 | 82 ft | 0 kts | 136° |
| 2026-05-06 22:18 | 14.52408 | 121.00606 | 82 ft | 0 kts | 136° |
| 2026-05-06 22:21 | 14.52399 | 121.00614 | 82 ft | 4 kts | 136° |
| 2026-05-06 22:21 | 14.52368 | 121.00646 | 82 ft | 8 kts | 135° |
| 2026-05-06 22:22 | 14.52315 | 121.00701 | 82 ft | 12 kts | 134° |
| 2026-05-06 22:22 | 14.52257 | 121.00761 | 82 ft | 8 kts | 138° |
| 2026-05-06 22:22 | 14.52213 | 121.00771 | 82 ft | 7 kts | 199° |
| 2026-05-06 22:22 | 14.52171 | 121.00754 | 82 ft | 8 kts | 174° |
| 2026-05-06 22:23 | 14.52130 | 121.00787 | 82 ft | 8 kts | 134° |
| 2026-05-06 22:23 | 14.52080 | 121.00840 | 82 ft | 12 kts | 135° |
| 2026-05-06 22:23 | 14.52012 | 121.00910 | 82 ft | 15 kts | 134° |
| 2026-05-06 22:23 | 14.51932 | 121.00993 | 82 ft | 16 kts | 135° |
| 2026-05-06 22:24 | 14.51851 | 121.01077 | 82 ft | 16 kts | 135° |
| 2026-05-06 22:24 | 14.51770 | 121.01160 | 82 ft | 16 kts | 135° |
| 2026-05-06 22:24 | 14.51691 | 121.01244 | 82 ft | 16 kts | 133° |
| 2026-05-06 22:24 | 14.51611 | 121.01326 | 82 ft | 16 kts | 135° |
| 2026-05-06 22:25 | 14.51531 | 121.01408 | 82 ft | 16 kts | 135° |
| 2026-05-06 22:25 | 14.51453 | 121.01489 | 82 ft | 16 kts | 134° |
| 2026-05-06 22:25 | 14.51373 | 121.01572 | 82 ft | 16 kts | 135° |
| 2026-05-06 22:25 | 14.51295 | 121.01653 | 82 ft | 15 kts | 135° |
| 2026-05-06 22:26 | 14.51216 | 121.01735 | 82 ft | 15 kts | 135° |
| 2026-05-06 22:26 | 14.51137 | 121.01815 | 82 ft | 15 kts | 135° |
| 2026-05-06 22:26 | 14.51088 | 121.01859 | 82 ft | 4 kts | 163° |
| 2026-05-06 22:26 | 14.51059 | 121.01857 | 82 ft | 4 kts | 197° |
| 2026-05-06 22:27 | 14.51034 | 121.01831 | 82 ft | 5 kts | 240° |
| 2026-05-06 22:27 | 14.51029 | 121.01788 | 82 ft | 6 kts | 289° |
| 2026-05-06 22:27 | 14.51041 | 121.01771 | 82 ft | 0 kts | 313° |
| 2026-05-06 22:28 | 14.51096 | 121.01714 | 82 ft | 38 kts | 315° |
| 2026-05-06 22:28 | 14.51484 | 121.01312 | 83 ft | 115 kts | 315° |
| 2026-05-06 22:28 | 14.52185 | 121.00577 | 190 ft | 160 kts | 315° |
| 2026-05-06 22:28 | 14.52969 | 120.99757 | 761 ft | 162 kts | 315° |
| 2026-05-06 22:29 | 14.53764 | 120.98932 | 1384 ft | 163 kts | 317° |
| 2026-05-06 22:29 | 14.54567 | 120.98101 | 1935 ft | 166 kts | 318° |
| 2026-05-06 22:29 | 14.55430 | 120.97218 | 2300 ft | 181 kts | 318° |
| 2026-05-06 22:29 | 14.56356 | 120.96269 | 2657 ft | 197 kts | 318° |
| 2026-05-06 22:30 | 14.57383 | 120.95240 | 3017 ft | 213 kts | 323° |
| 2026-05-06 22:30 | 14.58804 | 120.94653 | 3245 ft | 231 kts | 5° |
| 2026-05-06 22:30 | 14.60300 | 120.95209 | 3787 ft | 236 kts | 44° |
| 2026-05-06 22:30 | 14.61144 | 120.96666 | 4347 ft | 245 kts | 79° |
| 2026-05-06 22:31 | 14.61037 | 120.98440 | 4913 ft | 259 kts | 110° |
| 2026-05-06 22:31 | 14.59979 | 120.99970 | 5648 ft | 269 kts | 140° |
| 2026-05-06 22:31 | 14.58247 | 121.00774 | 6431 ft | 278 kts | 168° |
| 2026-05-06 22:31 | 14.56312 | 121.00953 | 7172 ft | 284 kts | 175° |
| 2026-05-06 22:32 | 14.54305 | 121.00996 | 7891 ft | 289 kts | 176° |
| 2026-05-06 22:32 | 14.52266 | 121.01012 | 8620 ft | 293 kts | 177° |
| 2026-05-06 22:32 | 14.50199 | 121.01025 | 9320 ft | 296 kts | 177° |
| 2026-05-06 22:32 | 14.48105 | 121.01040 | 9991 ft | 299 kts | 177° |
| 2026-05-06 22:33 | 14.45999 | 121.01060 | 10560 ft | 306 kts | 177° |
| 2026-05-06 22:33 | 14.43794 | 121.01088 | 10862 ft | 323 kts | 177° |
| 2026-05-06 22:33 | 14.41446 | 121.01121 | 11144 ft | 339 kts | 177° |
| 2026-05-06 22:33 | 14.38999 | 121.01162 | 11413 ft | 355 kts | 177° |
| 2026-05-06 22:34 | 14.36473 | 121.01208 | 11740 ft | 367 kts | 177° |
| 2026-05-06 22:34 | 14.33857 | 121.01258 | 12291 ft | 371 kts | 177° |
| 2026-05-06 22:34 | 14.31250 | 121.01311 | 12885 ft | 374 kts | 177° |
| 2026-05-06 22:34 | 14.28626 | 121.01369 | 13435 ft | 377 kts | 177° |
| 2026-05-06 22:35 | 14.25960 | 121.01433 | 13976 ft | 380 kts | 177° |
| 2026-05-06 22:35 | 14.23305 | 121.01493 | 14485 ft | 383 kts | 177° |
| 2026-05-06 22:35 | 14.20618 | 121.01540 | 14983 ft | 386 kts | 178° |
| 2026-05-06 22:35 | 14.17889 | 121.01598 | 15481 ft | 389 kts | 176° |
| 2026-05-06 22:36 | 14.15158 | 121.01672 | 15966 ft | 391 kts | 176° |
| 2026-05-06 22:36 | 14.12414 | 121.01746 | 16437 ft | 394 kts | 176° |
| 2026-05-06 22:36 | 14.09658 | 121.01817 | 16897 ft | 396 kts | 176° |
| 2026-05-06 22:36 | 14.06877 | 121.01887 | 17342 ft | 399 kts | 176° |
| 2026-05-06 22:37 | 14.04075 | 121.01955 | 17795 ft | 401 kts | 176° |
| 2026-05-06 22:37 | 14.01266 | 121.02023 | 18218 ft | 404 kts | 176° |
| 2026-05-06 22:37 | 13.98409 | 121.02090 | 18635 ft | 407 kts | 177° |
| 2026-05-06 22:37 | 13.95563 | 121.02158 | 19040 ft | 410 kts | 177° |
| 2026-05-06 22:38 | 13.92657 | 121.02225 | 19443 ft | 413 kts | 177° |
| 2026-05-06 22:38 | 13.89757 | 121.02291 | 19850 ft | 416 kts | 177° |
| 2026-05-06 22:38 | 13.86850 | 121.02356 | 20258 ft | 418 kts | 177° |
| 2026-05-06 22:38 | 13.83875 | 121.02424 | 20677 ft | 421 kts | 177° |
| 2026-05-06 22:39 | 13.80955 | 121.02490 | 21073 ft | 424 kts | 177° |
| 2026-05-06 22:39 | 13.77974 | 121.02558 | 21469 ft | 426 kts | 177° |
| 2026-05-06 22:39 | 13.75000 | 121.02626 | 21855 ft | 429 kts | 177° |
| 2026-05-06 22:39 | 13.71995 | 121.02696 | 22253 ft | 432 kts | 177° |
| 2026-05-06 22:40 | 13.68964 | 121.02767 | 22659 ft | 434 kts | 177° |
| 2026-05-06 22:40 | 13.65904 | 121.02837 | 23052 ft | 437 kts | 178° |
| 2026-05-06 22:40 | 13.62849 | 121.02907 | 23432 ft | 440 kts | 178° |
| 2026-05-06 22:40 | 13.59761 | 121.02977 | 23817 ft | 442 kts | 178° |
| 2026-05-06 22:41 | 13.53542 | 121.03117 | 24561 ft | 447 kts | 178° |
| 2026-05-06 22:41 | 13.50436 | 121.03188 | 24912 ft | 450 kts | 178° |
| 2026-05-06 22:41 | 13.47272 | 121.03239 | 25300 ft | 452 kts | 179° |
| 2026-05-06 22:42 | 13.44102 | 121.03271 | 25683 ft | 453 kts | 179° |
| 2026-05-06 22:42 | 13.40963 | 121.03297 | 26035 ft | 456 kts | 179° |
| 2026-05-06 22:42 | 13.37783 | 121.03323 | 26379 ft | 458 kts | 180° |
| 2026-05-06 22:42 | 13.34568 | 121.03351 | 26710 ft | 461 kts | 180° |
| 2026-05-06 22:43 | 13.31315 | 121.03380 | 27021 ft | 463 kts | 180° |
| 2026-05-06 22:43 | 13.28117 | 121.03410 | 27350 ft | 465 kts | 180° |
| 2026-05-06 22:43 | 13.24862 | 121.03441 | 27691 ft | 467 kts | 180° |
| 2026-05-06 22:43 | 13.21581 | 121.03477 | 28015 ft | 469 kts | 180° |
| 2026-05-06 22:44 | 13.18285 | 121.03513 | 28295 ft | 471 kts | 180° |
| 2026-05-06 22:44 | 13.15025 | 121.03548 | 28572 ft | 473 kts | 180° |
| 2026-05-06 22:44 | 13.11684 | 121.03584 | 28820 ft | 475 kts | 180° |
| 2026-05-06 22:44 | 13.08374 | 121.03616 | 29093 ft | 476 kts | 180° |
| 2026-05-06 22:45 | 13.05049 | 121.03649 | 29350 ft | 477 kts | 180° |
| 2026-05-06 22:45 | 13.01704 | 121.03683 | 29588 ft | 478 kts | 180° |
| 2026-05-06 22:45 | 12.98384 | 121.03715 | 29886 ft | 478 kts | 181° |
| 2026-05-06 22:45 | 12.95052 | 121.03748 | 30223 ft | 476 kts | 181° |
| 2026-05-06 22:46 | 12.91733 | 121.03780 | 30548 ft | 475 kts | 181° |
| 2026-05-06 22:46 | 12.88440 | 121.03812 | 30854 ft | 473 kts | 181° |
| 2026-05-06 22:46 | 12.85094 | 121.03844 | 31153 ft | 472 kts | 180° |
| 2026-05-06 22:46 | 12.81832 | 121.03877 | 31434 ft | 471 kts | 180° |
| 2026-05-06 22:47 | 12.78540 | 121.03909 | 31722 ft | 470 kts | 181° |
| 2026-05-06 22:47 | 12.75264 | 121.03941 | 32010 ft | 469 kts | 181° |
| 2026-05-06 22:47 | 12.71984 | 121.03973 | 32288 ft | 468 kts | 181° |
| 2026-05-06 22:47 | 12.68744 | 121.04004 | 32549 ft | 467 kts | 181° |
| 2026-05-06 22:48 | 12.65499 | 121.04035 | 32836 ft | 466 kts | 181° |
| 2026-05-06 22:48 | 12.62273 | 121.04067 | 33136 ft | 465 kts | 181° |
| 2026-05-06 22:48 | 12.59012 | 121.04097 | 33448 ft | 464 kts | 181° |
| 2026-05-06 22:48 | 12.55787 | 121.04127 | 33769 ft | 462 kts | 181° |
| 2026-05-06 22:49 | 12.52561 | 121.04157 | 34092 ft | 461 kts | 181° |
| 2026-05-06 22:49 | 12.49354 | 121.04187 | 34406 ft | 459 kts | 181° |
| 2026-05-06 22:49 | 12.46144 | 121.04223 | 34712 ft | 458 kts | 180° |
| 2026-05-06 22:49 | 12.42990 | 121.04482 | 34993 ft | 458 kts | 173° |
| 2026-05-06 22:50 | 12.36731 | 121.06181 | 35478 ft | 459 kts | 159° |
| 2026-05-06 22:50 | 12.33813 | 121.07585 | 35640 ft | 461 kts | 152° |
| 2026-05-06 22:50 | 12.31969 | 121.08714 | 35742 ft | 462 kts | 148° |
| 2026-05-06 22:51 | 12.29394 | 121.10667 | 35896 ft | 464 kts | 141° |
| 2026-05-06 22:51 | 12.26977 | 121.12894 | 36061 ft | 464 kts | 138° |
| 2026-05-06 22:51 | 12.24620 | 121.15161 | 36199 ft | 465 kts | 138° |
| 2026-05-06 22:51 | 12.22280 | 121.17425 | 36322 ft | 466 kts | 138° |
| 2026-05-06 22:52 | 12.19916 | 121.19707 | 36450 ft | 466 kts | 138° |
| 2026-05-06 22:52 | 12.17549 | 121.21983 | 36577 ft | 466 kts | 138° |
| 2026-05-06 22:52 | 12.15175 | 121.24261 | 36700 ft | 467 kts | 138° |
| 2026-05-06 22:52 | 12.12821 | 121.26514 | 36812 ft | 467 kts | 138° |
| 2026-05-06 22:53 | 12.10446 | 121.28784 | 36895 ft | 468 kts | 138° |
| 2026-05-06 22:53 | 12.05679 | 121.33338 | 36897 ft | 467 kts | 138° |
| 2026-05-06 22:54 | 12.00960 | 121.37843 | 36893 ft | 466 kts | 138° |
| 2026-05-06 22:54 | 11.96229 | 121.42355 | 36889 ft | 466 kts | 138° |
| 2026-05-06 22:55 | 11.91488 | 121.46877 | 36887 ft | 466 kts | 138° |
| 2026-05-06 22:55 | 11.86740 | 121.51385 | 36886 ft | 465 kts | 138° |
| 2026-05-06 22:56 | 11.81988 | 121.55891 | 36882 ft | 464 kts | 138° |
| 2026-05-06 22:56 | 11.77282 | 121.60365 | 36879 ft | 464 kts | 138° |
| 2026-05-06 22:57 | 11.71774 | 121.65612 | 36878 ft | 463 kts | 138° |
| 2026-05-06 22:57 | 11.67836 | 121.69383 | 36877 ft | 463 kts | 138° |
| 2026-05-06 22:58 | 11.63139 | 121.73860 | 36875 ft | 463 kts | 138° |
| 2026-05-06 22:58 | 11.58428 | 121.78338 | 36872 ft | 463 kts | 138° |
| 2026-05-06 22:59 | 11.53676 | 121.82849 | 36871 ft | 464 kts | 138° |
| 2026-05-06 22:59 | 11.48959 | 121.87326 | 36871 ft | 464 kts | 138° |
| 2026-05-06 23:00 | 11.44230 | 121.91815 | 36867 ft | 463 kts | 138° |
| 2026-05-06 23:00 | 11.39483 | 121.96320 | 36868 ft | 463 kts | 137° |
| 2026-05-06 23:01 | 11.34749 | 122.00808 | 36864 ft | 462 kts | 137° |
| 2026-05-06 23:01 | 11.30010 | 122.05299 | 36874 ft | 462 kts | 137° |
| 2026-05-06 23:02 | 11.25278 | 122.09782 | 36889 ft | 463 kts | 137° |
| 2026-05-06 23:02 | 11.20552 | 122.14257 | 36908 ft | 463 kts | 137° |
| 2026-05-06 23:03 | 11.15813 | 122.18742 | 36928 ft | 463 kts | 137° |
| 2026-05-06 23:03 | 11.11094 | 122.23204 | 36951 ft | 463 kts | 137° |
| 2026-05-06 23:04 | 11.06341 | 122.27696 | 36969 ft | 462 kts | 137° |
| 2026-05-06 23:04 | 11.01635 | 122.32143 | 36962 ft | 462 kts | 137° |
| 2026-05-06 23:05 | 10.96891 | 122.36621 | 36945 ft | 462 kts | 137° |
| 2026-05-06 23:05 | 10.92173 | 122.41070 | 36922 ft | 463 kts | 137° |
| 2026-05-06 23:06 | 10.86999 | 122.45020 | 36903 ft | 461 kts | 152° |
| 2026-05-06 23:06 | 10.81009 | 122.47420 | 36889 ft | 460 kts | 167° |
| 2026-05-06 23:07 | 10.74635 | 122.48143 | 36883 ft | 460 kts | 181° |
| 2026-05-06 23:07 | 10.68217 | 122.47540 | 36885 ft | 460 kts | 186° |
| 2026-05-06 23:08 | 10.61850 | 122.46787 | 36882 ft | 460 kts | 186° |
| 2026-05-06 23:08 | 10.54398 | 122.45933 | 36883 ft | 460 kts | 186° |
| 2026-05-06 23:09 | 10.47985 | 122.45212 | 36883 ft | 460 kts | 186° |
| 2026-05-06 23:09 | 10.42636 | 122.44611 | 36883 ft | 460 kts | 186° |
| 2026-05-06 23:10 | 10.36284 | 122.43900 | 36884 ft | 461 kts | 186° |
| 2026-05-06 23:10 | 10.29893 | 122.43184 | 36886 ft | 460 kts | 186° |
| 2026-05-06 23:11 | 10.23503 | 122.42467 | 36886 ft | 460 kts | 186° |
| 2026-05-06 23:11 | 10.17143 | 122.41754 | 36888 ft | 460 kts | 186° |
| 2026-05-06 23:12 | 10.10740 | 122.41035 | 36886 ft | 460 kts | 186° |
| 2026-05-06 23:12 | 10.04338 | 122.40317 | 36886 ft | 460 kts | 186° |
| 2026-05-06 23:13 | 9.97912 | 122.39597 | 36878 ft | 460 kts | 186° |
| 2026-05-06 23:13 | 9.91486 | 122.38878 | 36878 ft | 461 kts | 186° |
| 2026-05-06 23:14 | 9.85068 | 122.38161 | 36873 ft | 461 kts | 186° |
| 2026-05-06 23:14 | 9.78640 | 122.37442 | 36873 ft | 461 kts | 186° |
| 2026-05-06 23:15 | 9.72295 | 122.36732 | 36876 ft | 461 kts | 186° |
| 2026-05-06 23:15 | 9.65901 | 122.36020 | 36875 ft | 461 kts | 186° |
| 2026-05-06 23:16 | 9.58426 | 122.35184 | 36868 ft | 462 kts | 186° |
| 2026-05-06 23:16 | 9.53089 | 122.34586 | 36866 ft | 462 kts | 186° |
| 2026-05-06 23:17 | 9.46707 | 122.33871 | 36869 ft | 462 kts | 186° |
| 2026-05-06 23:17 | 9.40278 | 122.33150 | 36866 ft | 462 kts | 186° |
| 2026-05-06 23:18 | 9.33876 | 122.32432 | 36866 ft | 462 kts | 186° |
| 2026-05-06 23:18 | 9.27513 | 122.31720 | 36864 ft | 462 kts | 186° |
| 2026-05-06 23:19 | 9.21094 | 122.31001 | 36862 ft | 462 kts | 186° |
| 2026-05-06 23:19 | 9.14692 | 122.30285 | 36863 ft | 462 kts | 186° |
| 2026-05-06 23:20 | 9.08291 | 122.29568 | 36858 ft | 462 kts | 186° |
| 2026-05-06 23:20 | 9.01860 | 122.28848 | 36858 ft | 462 kts | 186° |
| 2026-05-06 23:21 | 8.95449 | 122.28131 | 36859 ft | 463 kts | 186° |
| 2026-05-06 23:21 | 8.89031 | 122.27414 | 36858 ft | 463 kts | 186° |
| 2026-05-06 23:22 | 8.82590 | 122.26698 | 36852 ft | 464 kts | 187° |
| 2026-05-06 23:22 | 8.79390 | 122.26342 | 36548 ft | 463 kts | 187° |
| 2026-05-06 23:22 | 8.76172 | 122.25983 | 36246 ft | 461 kts | 187° |
| 2026-05-06 23:22 | 8.72996 | 122.25628 | 35803 ft | 459 kts | 187° |
| 2026-05-06 23:23 | 8.69783 | 122.25268 | 35107 ft | 457 kts | 186° |
| 2026-05-06 23:23 | 8.66635 | 122.24917 | 34370 ft | 457 kts | 187° |
| 2026-05-06 23:23 | 8.63458 | 122.24561 | 33609 ft | 457 kts | 187° |
| 2026-05-06 23:23 | 8.59238 | 122.24090 | 32565 ft | 458 kts | 186° |
| 2026-05-06 23:24 | 8.56075 | 122.23736 | 31825 ft | 459 kts | 186° |
| 2026-05-06 23:24 | 8.53957 | 122.23500 | 31292 ft | 461 kts | 186° |
| 2026-05-06 23:24 | 8.50755 | 122.23143 | 30460 ft | 465 kts | 186° |
| 2026-05-06 23:24 | 8.47523 | 122.22782 | 29587 ft | 469 kts | 186° |
| 2026-05-06 23:25 | 8.44277 | 122.22420 | 28806 ft | 469 kts | 186° |
| 2026-05-06 23:25 | 8.41021 | 122.22057 | 28227 ft | 466 kts | 186° |
| 2026-05-06 23:25 | 8.36738 | 122.21578 | 27453 ft | 463 kts | 186° |
| 2026-05-06 23:25 | 8.34618 | 122.21341 | 27084 ft | 461 kts | 186° |
| 2026-05-06 23:26 | 8.31433 | 122.20985 | 26545 ft | 457 kts | 186° |
| 2026-05-06 23:26 | 8.28295 | 122.20635 | 26023 ft | 453 kts | 186° |
| 2026-05-06 23:26 | 8.25148 | 122.20283 | 25496 ft | 450 kts | 186° |
| 2026-05-06 23:26 | 8.22058 | 122.19939 | 24975 ft | 447 kts | 186° |
| 2026-05-06 23:27 | 8.18979 | 122.19596 | 24461 ft | 443 kts | 185° |
| 2026-05-06 23:27 | 8.15917 | 122.19255 | 23944 ft | 440 kts | 185° |
| 2026-05-06 23:27 | 8.12846 | 122.18913 | 23431 ft | 437 kts | 185° |
| 2026-05-06 23:27 | 8.09842 | 122.18578 | 22931 ft | 434 kts | 185° |
| 2026-05-06 23:28 | 8.06853 | 122.18245 | 22433 ft | 431 kts | 185° |
| 2026-05-06 23:28 | 8.03844 | 122.17910 | 21937 ft | 428 kts | 185° |
| 2026-05-06 23:28 | 8.00908 | 122.17584 | 21452 ft | 425 kts | 185° |
| 2026-05-06 23:28 | 7.97975 | 122.17258 | 20961 ft | 423 kts | 184° |
| 2026-05-06 23:29 | 7.95053 | 122.16933 | 20464 ft | 420 kts | 184° |
| 2026-05-06 23:29 | 7.91188 | 122.16502 | 19798 ft | 418 kts | 184° |
| 2026-05-06 23:29 | 7.89228 | 122.16285 | 19456 ft | 416 kts | 184° |
| 2026-05-06 23:29 | 7.85401 | 122.15859 | 18780 ft | 413 kts | 184° |
| 2026-05-06 23:30 | 7.83492 | 122.15647 | 18425 ft | 412 kts | 184° |
| 2026-05-06 23:30 | 7.80654 | 122.15332 | 17904 ft | 411 kts | 184° |
| 2026-05-06 23:30 | 7.76864 | 122.14911 | 17219 ft | 408 kts | 183° |
| 2026-05-06 23:30 | 7.74977 | 122.14702 | 16879 ft | 406 kts | 184° |
| 2026-05-06 23:31 | 7.72180 | 122.14393 | 16382 ft | 403 kts | 184° |
| 2026-05-06 23:31 | 7.68444 | 122.13979 | 15713 ft | 399 kts | 184° |
| 2026-05-06 23:31 | 7.66621 | 122.13777 | 15388 ft | 397 kts | 184° |
| 2026-05-06 23:31 | 7.62976 | 122.13372 | 14734 ft | 393 kts | 184° |
| 2026-05-06 23:32 | 7.61139 | 122.13168 | 14401 ft | 391 kts | 184° |
| 2026-05-06 23:32 | 7.58464 | 122.12870 | 13917 ft | 389 kts | 184° |
| 2026-05-06 23:32 | 7.55755 | 122.12569 | 13418 ft | 386 kts | 184° |
| 2026-05-06 23:32 | 7.53111 | 122.12275 | 12955 ft | 382 kts | 184° |
| 2026-05-06 23:33 | 7.50487 | 122.11983 | 12462 ft | 380 kts | 184° |
| 2026-05-06 23:33 | 7.47843 | 122.11688 | 11970 ft | 377 kts | 184° |
| 2026-05-06 23:33 | 7.45235 | 122.11398 | 11487 ft | 375 kts | 185° |
| 2026-05-06 23:33 | 7.42651 | 122.11111 | 11008 ft | 372 kts | 185° |
| 2026-05-06 23:34 | 7.40098 | 122.10828 | 10541 ft | 369 kts | 185° |
| 2026-05-06 23:34 | 7.36752 | 122.10455 | 10330 ft | 351 kts | 185° |
| 2026-05-06 23:34 | 7.35170 | 122.10173 | 10238 ft | 343 kts | 196° |
| 2026-05-06 23:34 | 7.33078 | 122.09074 | 10129 ft | 330 kts | 219° |
| 2026-05-06 23:35 | 7.31505 | 122.07452 | 10062 ft | 316 kts | 229° |
| 2026-05-06 23:35 | 7.30082 | 122.05797 | 9863 ft | 308 kts | 229° |
| 2026-05-06 23:35 | 7.28688 | 122.04167 | 9528 ft | 306 kts | 229° |
| 2026-05-06 23:35 | 7.26825 | 122.02018 | 9086 ft | 304 kts | 229° |
| 2026-05-06 23:36 | 7.25896 | 122.00955 | 8874 ft | 302 kts | 229° |
| 2026-05-06 23:36 | 7.24501 | 121.99370 | 8548 ft | 300 kts | 228° |
| 2026-05-06 23:36 | 7.23115 | 121.97800 | 8226 ft | 297 kts | 228° |
| 2026-05-06 23:36 | 7.21749 | 121.96255 | 7909 ft | 295 kts | 228° |
| 2026-05-06 23:37 | 7.20398 | 121.94730 | 7601 ft | 292 kts | 228° |
| 2026-05-06 23:37 | 7.19046 | 121.93202 | 7290 ft | 289 kts | 228° |
| 2026-05-06 23:37 | 7.17714 | 121.91698 | 6984 ft | 287 kts | 228° |
| 2026-05-06 23:37 | 7.16384 | 121.90197 | 6704 ft | 283 kts | 228° |
| 2026-05-06 23:38 | 7.15087 | 121.88733 | 6481 ft | 276 kts | 228° |
| 2026-05-06 23:38 | 7.13812 | 121.87294 | 6214 ft | 272 kts | 228° |
| 2026-05-06 23:38 | 7.12561 | 121.85883 | 5947 ft | 268 kts | 228° |
| 2026-05-06 23:38 | 7.11333 | 121.84499 | 5691 ft | 263 kts | 228° |
| 2026-05-06 23:39 | 7.09940 | 121.83307 | 5420 ft | 258 kts | 204° |
| 2026-05-06 23:39 | 7.08219 | 121.82922 | 5234 ft | 247 kts | 177° |
| 2026-05-06 23:39 | 7.06518 | 121.83010 | 5038 ft | 241 kts | 174° |
| 2026-05-06 23:39 | 7.04286 | 121.83172 | 4741 ft | 236 kts | 174° |
| 2026-05-06 23:40 | 7.03188 | 121.83243 | 4593 ft | 234 kts | 175° |
| 2026-05-06 23:40 | 7.01583 | 121.83332 | 4371 ft | 230 kts | 175° |
| 2026-05-06 23:40 | 6.99976 | 121.83413 | 4144 ft | 226 kts | 176° |
| 2026-05-06 23:40 | 6.98434 | 121.83486 | 3917 ft | 222 kts | 175° |
| 2026-05-06 23:41 | 6.96875 | 121.83557 | 3602 ft | 218 kts | 175° |
| 2026-05-06 23:41 | 6.95447 | 121.83743 | 3496 ft | 199 kts | 159° |
| 2026-05-06 23:41 | 6.94305 | 121.84470 | 3206 ft | 191 kts | 130° |
| 2026-05-06 23:41 | 6.93644 | 121.85596 | 2976 ft | 180 kts | 105° |
| 2026-05-06 23:42 | 6.93441 | 121.86775 | 2873 ft | 165 kts | 91° |
| 2026-05-06 23:42 | 6.93396 | 121.87888 | 2846 ft | 154 kts | 89° |
| 2026-05-06 23:42 | 6.93365 | 121.88957 | 2776 ft | 154 kts | 89° |
| 2026-05-06 23:42 | 6.93317 | 121.90038 | 2691 ft | 153 kts | 90° |
| 2026-05-06 23:43 | 6.93253 | 121.91115 | 2599 ft | 153 kts | 91° |
| 2026-05-06 23:43 | 6.93181 | 121.92173 | 2481 ft | 153 kts | 91° |
| 2026-05-06 23:43 | 6.93105 | 121.93244 | 2268 ft | 151 kts | 91° |
| 2026-05-06 23:43 | 6.93008 | 121.94609 | 1998 ft | 144 kts | 92° |
| 2026-05-06 23:44 | 6.92960 | 121.95287 | 1878 ft | 144 kts | 92° |
| 2026-05-06 23:44 | 6.92890 | 121.96290 | 1691 ft | 143 kts | 91° |
| 2026-05-06 23:44 | 6.92823 | 121.97286 | 1496 ft | 142 kts | 91° |
| 2026-05-06 23:44 | 6.92758 | 121.98249 | 1301 ft | 137 kts | 91° |
| 2026-05-06 23:45 | 6.92693 | 121.99206 | 1140 ft | 135 kts | 91° |
| 2026-05-06 23:45 | 6.92631 | 122.00150 | 961 ft | 135 kts | 91° |
| 2026-05-06 23:45 | 6.92569 | 122.01080 | 781 ft | 134 kts | 91° |
| 2026-05-06 23:45 | 6.92500 | 122.02022 | 619 ft | 133 kts | 92° |
| 2026-05-06 23:46 | 6.92443 | 122.02950 | 429 ft | 133 kts | 91° |
| 2026-05-06 23:46 | 6.92379 | 122.03873 | 258 ft | 133 kts | 92° |
| 2026-05-06 23:46 | 6.92316 | 122.04798 | 98 ft | 132 kts | 91° |
| 2026-05-06 23:46 | 6.92266 | 122.05624 | 59 ft | 84 kts | 94° |
| 2026-05-06 23:47 | 6.92245 | 122.05946 | 59 ft | 14 kts | 94° |
| 2026-05-06 23:47 | 6.92228 | 122.05979 | 58 ft | 4 kts | 140° |
| 2026-05-06 23:47 | 6.92199 | 122.06004 | 58 ft | 6 kts | 141° |
| 2026-05-06 23:47 | 6.92163 | 122.06033 | 58 ft | 7 kts | 141° |
| 2026-05-06 23:48 | 6.92124 | 122.06065 | 58 ft | 4 kts | 131° |
| 2026-05-06 23:48 | 6.92115 | 122.06114 | 58 ft | 6 kts | 94° |
| 2026-05-06 23:48 | 6.92113 | 122.06145 | 58 ft | 7 kts | 94° |
| 2026-05-06 23:48 | 6.92110 | 122.06190 | 58 ft | 2 kts | 93° |
| 2026-05-06 23:49 | 6.92109 | 122.06206 | 58 ft | 1 kts | 103° |
| 2026-05-06 23:49 | 6.92097 | 122.06217 | 59 ft | 3 kts | 150° |
| 2026-05-06 23:49 | 6.92075 | 122.06227 | 59 ft | 3 kts | 155° |
| 2026-05-06 23:49 | 6.92065 | 122.06233 | 59 ft | 0 kts | 155° |
| 2026-05-06 23:50 | 6.92059 | 122.06235 | 59 ft | 0 kts | 155° |
| 2026-05-06 23:50 | 6.92048 | 122.06240 | 59 ft | 0 kts | 156° |